Time;durP1;ratioP1;P1;durP2;ratioP2;P2;SDS_P1;SDS_P2;PMS_P1;PMS_P2;Temp;Humidity;BMP_temperature;BMP_pressure;BME280_temperature;BME280_humidity;BME280_pressure;Samples;Min_cycle;Max_cycle;Signal;HPM_P1;HPM_P2
2021/08/10 00:01:15;;;;;;;9.63;7.18;;;;;;;-145.71;100.00;60690.53;5013650;28;20026;-81
2021/08/10 00:03:40;;;;;;;17.15;8.65;;;;;;;-145.71;100.00;60690.53;5012882;28;20378;-81
2021/08/10 00:06:05;;;;;;;8.23;7.43;;;;;;;-145.71;100.00;60690.53;4994076;28;20034;-80
2021/08/10 00:08:31;;;;;;;8.82;7.88;;;;;;;-145.71;100.00;60690.53;5011573;28;20042;-81
2021/08/10 00:10:57;;;;;;;9.32;7.30;;;;;;;-145.71;100.00;60690.53;4993556;28;20026;-80
2021/08/10 00:13:23;;;;;;;8.88;7.50;;;;;;;-145.71;100.00;60690.53;5013389;28;20118;-81
2021/08/10 00:15:49;;;;;;;10.90;7.13;;;;;;;-145.71;100.00;60690.53;5014827;28;20384;-81
2021/08/10 00:18:15;;;;;;;11.77;8.15;;;;;;;-145.71;100.00;60690.53;5013433;28;20030;-81
2021/08/10 00:20:42;;;;;;;10.02;8.18;;;;;;;-145.71;100.00;60690.53;4994956;28;20053;-81
2021/08/10 00:23:08;;;;;;;10.85;7.85;;;;;;;-145.71;100.00;60690.53;4994841;28;20147;-81
2021/08/10 00:25:34;;;;;;;11.65;8.15;;;;;;;-145.71;100.00;60690.53;5014599;28;20077;-81
2021/08/10 00:28:00;;;;;;;12.10;7.38;;;;;;;-145.71;100.00;60690.53;5012935;28;20034;-80
2021/08/10 00:30:26;;;;;;;12.52;8.68;;;;;;;-145.71;100.00;60690.53;5012402;28;20031;-81
2021/08/10 00:32:52;;;;;;;13.40;9.50;;;;;;;-145.71;100.00;60690.53;4993473;28;20025;-80
2021/08/10 00:35:18;;;;;;;13.70;9.98;;;;;;;-145.71;100.00;60690.53;5011320;28;20036;-79
2021/08/10 00:37:44;;;;;;;11.30;8.98;;;;;;;-145.71;100.00;60690.53;4993142;28;20452;-80
2021/08/10 00:40:09;;;;;;;10.20;8.25;;;;;;;-145.71;100.00;60690.53;5012628;28;20057;-81
2021/08/10 00:42:35;;;;;;;11.05;8.18;;;;;;;-145.71;100.00;60690.53;5013503;28;20505;-81
2021/08/10 00:45:01;;;;;;;10.65;9.52;;;;;;;-145.71;100.00;60690.53;4995266;28;20025;-81
2021/08/10 00:47:26;;;;;;;10.70;9.07;;;;;;;-145.71;100.00;60690.53;5013025;28;20117;-80
2021/08/10 00:49:51;;;;;;;14.68;8.75;;;;;;;-145.71;100.00;60690.53;4995054;28;20030;-80
2021/08/10 00:52:17;;;;;;;11.40;8.77;;;;;;;-145.71;100.00;60690.53;5013075;28;20529;-81
2021/08/10 00:54:42;;;;;;;11.95;8.68;;;;;;;-145.71;100.00;60690.53;5012338;28;20080;-80
2021/08/10 00:57:08;;;;;;;13.73;9.90;;;;;;;-145.71;100.00;60690.53;5010953;28;20713;-81
2021/08/10 00:59:33;;;;;;;12.52;9.75;;;;;;;-145.71;100.00;60690.53;5011079;28;20084;-80
2021/08/10 01:01:59;;;;;;;14.07;10.05;;;;;;;-145.71;100.00;60690.53;4992556;28;20038;-81
2021/08/10 01:04:24;;;;;;;13.50;9.35;;;;;;;-145.71;100.00;60690.53;5010114;28;20034;-80
2021/08/10 01:06:56;;;;;;;16.15;10.05;;;;;;;-145.71;100.00;60690.53;4993552;28;20180;-81
2021/08/10 01:09:46;;;;;;;13.75;10.50;;;;;;;-145.71;100.00;60690.53;5013443;28;20044;-81
2021/08/10 01:12:24;;;;;;;16.38;10.00;;;;;;;-145.71;100.00;60690.53;5012098;28;20033;-81
2021/08/10 01:15:13;;;;;;;14.27;9.68;;;;;;;-145.71;100.00;60690.53;4997629;28;20531;-80
2021/08/10 01:18:13;;;;;;;13.70;10.02;;;;;;;-145.71;100.00;60690.53;4997250;28;20033;-81
2021/08/10 01:21:02;;;;;;;17.13;9.55;;;;;;;-145.71;100.00;60690.53;4982404;28;20405;-80
2021/08/10 01:23:30;;;;;;;12.70;8.38;;;;;;;-145.71;100.00;60690.53;5013852;28;20053;-80
2021/08/10 01:25:58;;;;;;;19.92;11.20;;;;;;;-145.71;100.00;60690.53;5014145;28;20030;-80
2021/08/10 01:28:49;;;;;;;12.13;8.98;;;;;;;-145.71;100.00;60690.53;5013919;28;20128;-80
2021/08/10 01:31:27;;;;;;;17.13;9.07;;;;;;;-145.71;100.00;60690.53;4995893;28;20087;-81
2021/08/10 01:34:01;;;;;;;11.90;8.80;;;;;;;-145.71;100.00;60690.53;5017406;28;20087;-81
2021/08/10 01:36:27;;;;;;;15.73;8.70;;;;;;;-145.71;100.00;60690.53;4997313;28;20033;-81
2021/08/10 01:38:57;;;;;;;13.15;9.90;;;;;;;-145.71;100.00;60690.53;5014997;28;20060;-81
2021/08/10 01:41:24;;;;;;;16.30;10.55;;;;;;;-145.71;100.00;60690.53;4997471;28;20026;-81
2021/08/10 01:43:52;;;;;;;16.73;10.23;;;;;;;-145.71;100.00;60690.53;5014845;28;20026;-81
2021/08/10 01:46:22;;;;;;;17.10;9.98;;;;;;;-145.71;100.00;60690.53;5014197;28;20033;-81
2021/08/10 01:48:48;;;;;;;16.20;9.90;;;;;;;-145.71;100.00;60690.53;4995839;28;20401;-81
2021/08/10 01:51:13;;;;;;;14.70;10.85;;;;;;;-145.71;100.00;60690.53;5013800;28;20108;-80
2021/08/10 01:53:40;;;;;;;17.08;9.38;;;;;;;-145.71;100.00;60690.53;5013485;28;20169;-81
2021/08/10 01:56:06;;;;;;;15.60;10.40;;;;;;;-145.71;100.00;60690.53;5013573;28;20053;-81
2021/08/10 01:58:32;;;;;;;14.55;10.07;;;;;;;-145.71;100.00;60690.53;5017760;28;20060;-81
2021/08/10 02:00:59;;;;;;;17.65;11.98;;;;;;;-145.71;100.00;60690.53;4998919;28;20088;-81
2021/08/10 02:03:26;;;;;;;19.23;10.40;;;;;;;-145.71;100.00;60690.53;5015977;28;20029;-81
2021/08/10 02:05:52;;;;;;;16.92;12.13;;;;;;;-145.71;100.00;60690.53;5014558;28;20076;-80
2021/08/10 02:08:18;;;;;;;23.90;14.07;;;;;;;-145.71;100.00;60690.53;4996288;28;20428;-81
2021/08/10 02:10:45;;;;;;;22.52;12.98;;;;;;;-145.71;100.00;60690.53;5014103;28;20029;-81
2021/08/10 02:13:12;;;;;;;17.80;11.82;;;;;;;-145.71;100.00;60690.53;4995719;28;20022;-80
2021/08/10 02:15:40;;;;;;;26.63;17.13;;;;;;;-145.71;100.00;60690.53;5013269;28;20030;-81
2021/08/10 02:18:06;;;;;;;17.83;11.73;;;;;;;-145.71;100.00;60690.53;5013040;28;20108;-80
2021/08/10 02:20:33;;;;;;;23.13;15.13;;;;;;;-145.71;100.00;60690.53;5014317;28;20112;-81
2021/08/10 02:22:59;;;;;;;21.95;14.55;;;;;;;-145.71;100.00;60690.53;5016369;28;20049;-81
2021/08/10 02:25:27;;;;;;;19.33;13.70;;;;;;;-145.71;100.00;60690.53;5017011;28;20030;-81
2021/08/10 02:27:55;;;;;;;23.67;13.23;;;;;;;-145.71;100.00;60690.53;5016508;28;20026;-81
2021/08/10 02:30:26;;;;;;;23.45;16.15;;;;;;;-145.71;100.00;60690.53;5015441;28;20049;-81
2021/08/10 02:32:52;;;;;;;21.48;16.17;;;;;;;-145.71;100.00;60690.53;5014716;28;20030;-80
2021/08/10 02:35:23;;;;;;;22.25;15.70;;;;;;;-145.71;100.00;60690.53;5013608;28;20080;-81
2021/08/10 02:37:51;;;;;;;30.52;16.80;;;;;;;-145.71;100.00;60690.53;5013337;28;20026;-80
2021/08/10 02:40:20;;;;;;;16.65;13.15;;;;;;;-145.71;100.00;60690.53;4995132;28;20030;-80
2021/08/10 02:42:49;;;;;;;41.97;24.45;;;;;;;-145.71;100.00;60690.53;4996266;28;20026;-81
2021/08/10 02:45:15;;;;;;;21.42;15.10;;;;;;;-145.71;100.00;60690.53;5016689;28;20029;-81
2021/08/10 02:47:54;;;;;;;31.90;17.42;;;;;;;-145.71;100.00;60690.53;5015113;28;20025;-80
2021/08/10 02:50:23;;;;;;;36.17;19.40;;;;;;;-145.71;100.00;60690.53;4996784;28;20076;-81
2021/08/10 02:52:48;;;;;;;32.47;19.33;;;;;;;-145.71;100.00;60690.53;4996501;28;20025;-81
2021/08/10 02:55:18;;;;;;;22.27;15.35;;;;;;;-145.71;100.00;60690.53;5016050;28;20092;-81
2021/08/10 02:58:07;;;;;;;26.88;19.10;;;;;;;-145.71;100.00;60690.53;5014265;28;20026;-81
2021/08/10 03:00:40;;;;;;;38.10;23.65;;;;;;;-145.71;100.00;60690.53;4995748;28;20493;-80
2021/08/10 03:03:18;;;;;;;29.80;17.67;;;;;;;-145.71;100.00;60690.53;5013208;28;20038;-81
2021/08/10 03:05:46;;;;;;;45.63;24.67;;;;;;;-145.71;100.00;60690.53;5012846;28;20116;-81
2021/08/10 03:08:20;;;;;;;22.35;15.30;;;;;;;-145.71;100.00;60690.53;4994801;28;20112;-80
2021/08/10 03:10:48;;;;;;;29.23;19.42;;;;;;;-145.71;100.00;60690.53;5015090;28;20034;-81
2021/08/10 03:13:15;;;;;;;38.13;21.83;;;;;;;-145.71;100.00;60690.53;5013754;28;20021;-81
2021/08/10 03:15:41;;;;;;;37.08;21.63;;;;;;;-145.71;100.00;60690.53;4996245;28;20025;-80
2021/08/10 03:18:11;;;;;;;26.85;18.70;;;;;;;-145.71;100.00;60690.53;5013629;28;20065;-80
2021/08/10 03:20:40;;;;;;;29.85;18.27;;;;;;;-145.71;100.00;60690.53;5013868;28;20033;-81
2021/08/10 03:23:07;;;;;;;25.25;18.13;;;;;;;-145.71;100.00;60690.53;5015790;28;20054;-81
2021/08/10 03:25:33;;;;;;;22.25;16.15;;;;;;;-145.71;100.00;60690.53;4996242;28;20034;-81
2021/08/10 03:28:00;;;;;;;28.33;19.83;;;;;;;-145.71;100.00;60690.53;4995831;28;20545;-81
2021/08/10 03:30:26;;;;;;;24.73;17.20;;;;;;;-145.71;100.00;60690.53;5012675;28;20053;-81
2021/08/10 03:32:52;;;;;;;22.88;17.38;;;;;;;-145.71;100.00;60690.53;4994563;28;20084;-80
2021/08/10 03:35:19;;;;;;;36.45;22.83;;;;;;;-145.71;100.00;60690.53;4994511;28;20045;-81
2021/08/10 03:37:45;;;;;;;21.33;15.88;;;;;;;-145.71;100.00;60690.53;5014426;28;20097;-81
2021/08/10 03:40:11;;;;;;;38.03;20.58;;;;;;;-145.71;100.00;60690.53;5012931;28;20110;-81
2021/08/10 03:42:38;;;;;;;35.47;22.17;;;;;;;-145.71;100.00;60690.53;5012479;28;20047;-81
2021/08/10 03:45:04;;;;;;;21.20;17.05;;;;;;;-145.71;100.00;60690.53;5012109;28;20084;-80
2021/08/10 03:47:31;;;;;;;37.10;24.30;;;;;;;-145.71;100.00;60690.53;4994741;28;20029;-81
2021/08/10 03:49:58;;;;;;;33.17;23.70;;;;;;;-145.71;100.00;60690.53;4997261;28;20026;-81
2021/08/10 03:52:24;;;;;;;23.08;17.67;;;;;;;-145.71;100.00;60690.53;5013734;28;20030;-80
2021/08/10 03:54:49;;;;;;;48.40;29.85;;;;;;;-145.71;100.00;60690.53;4994445;28;20025;-81
2021/08/10 03:57:20;;;;;;;19.15;17.13;;;;;;;-145.71;100.00;60690.53;5013473;28;20096;-81
2021/08/10 03:59:49;;;;;;;24.55;18.50;;;;;;;-145.71;100.00;60690.53;5012018;28;20330;-81
2021/08/10 04:02:15;;;;;;;33.25;24.27;;;;;;;-145.71;100.00;60690.53;4995747;28;20038;-80
2021/08/10 04:04:42;;;;;;;29.60;18.95;;;;;;;-145.71;100.00;60690.53;5012489;28;20469;-80
2021/08/10 04:07:08;;;;;;;33.63;24.67;;;;;;;-145.71;100.00;60690.53;5011838;28;20076;-81
2021/08/10 04:09:36;;;;;;;22.08;18.52;;;;;;;-145.71;100.00;60690.53;5009485;28;20036;-81
2021/08/10 04:12:04;;;;;;;33.85;23.92;;;;;;;-145.71;100.00;60690.53;5018048;28;20445;-81
2021/08/10 04:14:30;;;;;;;33.08;22.52;;;;;;;-145.71;100.00;60690.53;5007952;28;20022;-81
2021/08/10 04:17:01;;;;;;;31.17;24.85;;;;;;;-145.71;100.00;60690.53;5017609;28;20034;-80
2021/08/10 04:19:33;;;;;;;44.53;29.15;;;;;;;-145.71;100.00;60690.53;5012769;28;20040;-81
2021/08/10 04:21:59;;;;;;;36.92;27.27;;;;;;;-145.71;100.00;60690.53;5009700;28;20461;-81
2021/08/10 04:24:24;;;;;;;37.13;26.90;;;;;;;-145.71;100.00;60690.53;4993611;28;20069;-81
2021/08/10 04:26:49;;;;;;;26.10;19.30;;;;;;;-145.71;100.00;60690.53;5029737;28;20048;-81
2021/08/10 04:29:15;;;;;;;38.90;26.52;;;;;;;-145.71;100.00;60690.53;5006049;28;20570;-82
2021/08/10 04:31:41;;;;;;;36.20;28.63;;;;;;;-145.71;100.00;60690.53;5020054;28;20037;-81
2021/08/10 04:34:06;;;;;;;29.88;22.17;;;;;;;-145.71;100.00;60690.53;5004996;28;20805;-80
2021/08/10 04:36:32;;;;;;;45.25;31.02;;;;;;;-145.71;100.00;60690.53;5009197;28;20035;-81
2021/08/10 04:38:57;;;;;;;26.92;19.85;;;;;;;-145.71;100.00;60690.53;5012602;28;20108;-81
2021/08/10 04:41:23;;;;;;;42.70;28.48;;;;;;;-145.71;100.00;60690.53;5000746;28;20025;-81
2021/08/10 04:43:49;;;;;;;30.25;21.45;;;;;;;-145.71;100.00;60690.53;5001611;28;20026;-81
2021/08/10 04:46:14;;;;;;;32.17;24.88;;;;;;;-145.71;100.00;60690.53;5015716;28;20034;-81
2021/08/10 04:48:39;;;;;;;30.42;23.10;;;;;;;-145.71;100.00;60690.53;5008147;28;20033;-81
2021/08/10 04:51:05;;;;;;;40.10;27.63;;;;;;;-145.71;100.00;60690.53;4998033;28;20257;-81
2021/08/10 04:53:30;;;;;;;31.05;19.80;;;;;;;-145.71;100.00;60690.53;5018693;28;20033;-81
2021/08/10 04:55:55;;;;;;;25.30;19.92;;;;;;;-145.71;100.00;60690.53;5019110;28;20035;-81
2021/08/10 04:58:21;;;;;;;23.65;19.13;;;;;;;-145.71;100.00;60690.53;4989931;28;20123;-81
2021/08/10 05:00:48;;;;;;;43.03;26.25;;;;;;;-145.71;100.00;60690.53;5011342;28;20461;-81
2021/08/10 05:03:16;;;;;;;28.25;21.25;;;;;;;-145.71;100.00;60690.53;4996313;28;20029;-81
2021/08/10 05:05:41;;;;;;;22.15;17.02;;;;;;;-145.71;100.00;60690.53;5023417;28;20036;-81
2021/08/10 05:08:07;;;;;;;23.85;16.40;;;;;;;-145.71;100.00;60690.53;5003183;28;20030;-82
2021/08/10 05:10:32;;;;;;;26.50;19.63;;;;;;;-145.71;100.00;60690.53;5021476;28;20057;-82
2021/08/10 05:12:58;;;;;;;29.75;21.92;;;;;;;-145.71;100.00;60690.53;5021306;28;20030;-81
2021/08/10 05:15:24;;;;;;;31.83;20.52;;;;;;;-145.71;100.00;60690.53;4999946;28;20534;-81
2021/08/10 05:17:49;;;;;;;35.30;23.83;;;;;;;-145.71;100.00;60690.53;5016444;28;20022;-81
2021/08/10 05:20:14;;;;;;;24.80;18.88;;;;;;;-145.71;100.00;60690.53;5024845;28;20467;-81
2021/08/10 05:22:41;;;;;;;28.90;21.45;;;;;;;-145.71;100.00;60690.53;5011215;28;20029;-81
2021/08/10 05:25:07;;;;;;;29.73;20.15;;;;;;;-145.71;100.00;60690.53;5021155;28;20037;-81
2021/08/10 05:27:33;;;;;;;25.95;20.00;;;;;;;-145.71;100.00;60690.53;4999414;28;20489;-81
2021/08/10 05:29:58;;;;;;;25.15;18.13;;;;;;;-145.71;100.00;60690.53;4996027;28;20037;-81
2021/08/10 05:32:23;;;;;;;32.15;21.30;;;;;;;-145.71;100.00;60690.53;5023142;28;20547;-80
2021/08/10 05:34:50;;;;;;;31.73;22.50;;;;;;;-145.71;100.00;60690.53;5004934;28;20157;-81
2021/08/10 05:37:15;;;;;;;23.08;17.65;;;;;;;-145.71;100.00;60690.53;5017026;28;20105;-81
2021/08/10 05:39:40;;;;;;;35.63;20.15;;;;;;;-145.71;100.00;60690.53;5001889;28;20044;-81
2021/08/10 05:42:06;;;;;;;29.23;17.92;;;;;;;-145.71;100.00;60690.53;5011979;28;20036;-81
2021/08/10 05:44:31;;;;;;;31.30;20.08;;;;;;;-145.71;100.00;60690.53;5032840;28;20396;-82
2021/08/10 05:46:57;;;;;;;34.55;21.00;;;;;;;-145.71;100.00;60690.53;5018663;28;20105;-82
2021/08/10 05:49:22;;;;;;;18.88;15.60;;;;;;;-145.71;100.00;60690.53;5017972;28;20029;-82
2021/08/10 05:51:47;;;;;;;32.13;19.17;;;;;;;-145.71;100.00;60690.53;4998484;28;20036;-81
2021/08/10 05:54:13;;;;;;;25.02;15.40;;;;;;;-145.71;100.00;60690.53;5023872;28;20120;-82
2021/08/10 05:56:39;;;;;;;28.15;18.45;;;;;;;-145.71;100.00;60690.53;5026171;28;20029;-81
2021/08/10 05:59:06;;;;;;;31.15;20.55;;;;;;;-145.71;100.00;60690.53;5016152;28;20441;-82
2021/08/10 06:01:34;;;;;;;24.60;17.55;;;;;;;-145.71;100.00;60690.53;5021993;28;20104;-81
2021/08/10 06:03:59;;;;;;;27.58;13.75;;;;;;;-145.71;100.00;60690.53;5005417;28;20051;-81
2021/08/10 06:06:27;;;;;;;24.30;17.70;;;;;;;-145.71;100.00;60690.53;5028707;28;20040;-81
2021/08/10 06:08:53;;;;;;;20.48;13.10;;;;;;;-145.71;100.00;60690.53;5027305;28;20559;-81
2021/08/10 06:11:18;;;;;;;22.65;13.05;;;;;;;-145.71;100.00;60690.53;5021863;28;20065;-82
2021/08/10 06:13:44;;;;;;;21.83;14.10;;;;;;;-145.71;100.00;60690.53;5024412;28;20060;-82
2021/08/10 06:16:09;;;;;;;22.08;14.77;;;;;;;-145.71;100.00;60690.53;5027687;28;20029;-82
2021/08/10 06:18:34;;;;;;;15.63;12.95;;;;;;;-145.71;100.00;60690.53;5015587;28;20100;-81
2021/08/10 06:21:00;;;;;;;19.20;11.75;;;;;;;-145.71;100.00;60690.53;5008167;28;20022;-81
2021/08/10 06:23:25;;;;;;;14.30;12.43;;;;;;;-145.71;100.00;60690.53;5020720;28;20068;-81
2021/08/10 06:25:50;;;;;;;15.45;13.45;;;;;;;-145.71;100.00;60690.53;5000909;28;20379;-81
2021/08/10 06:28:16;;;;;;;15.52;11.98;;;;;;;-145.71;100.00;60690.53;5026537;28;20033;-82
2021/08/10 06:30:41;;;;;;;17.10;12.52;;;;;;;-145.71;100.00;60690.53;5016252;28;20389;-81
2021/08/10 06:33:07;;;;;;;17.70;11.38;;;;;;;-145.71;100.00;60690.53;5025499;28;20033;-81
2021/08/10 06:35:32;;;;;;;15.60;11.10;;;;;;;-145.71;100.00;60690.53;5021067;28;20025;-81
2021/08/10 06:37:57;;;;;;;16.50;11.20;;;;;;;-145.71;100.00;60690.53;5019076;28;20030;-82
2021/08/10 06:40:23;;;;;;;13.82;10.77;;;;;;;-145.71;100.00;60690.53;5012773;28;20072;-81
2021/08/10 06:42:48;;;;;;;12.98;9.35;;;;;;;-145.71;100.00;60690.53;5016199;28;20049;-81
2021/08/10 06:45:13;;;;;;;20.48;12.13;;;;;;;-145.71;100.00;60690.53;5032490;28;20128;-82
2021/08/10 06:47:39;;;;;;;13.48;9.15;;;;;;;-145.71;100.00;60690.53;5032513;28;20032;-82
2021/08/10 06:50:05;;;;;;;15.25;9.88;;;;;;;-145.71;100.00;60690.53;5017289;28;20695;-82
2021/08/10 06:52:30;;;;;;;12.65;9.35;;;;;;;-145.71;100.00;60690.53;5009687;28;20029;-81
2021/08/10 06:54:55;;;;;;;11.02;9.20;;;;;;;-145.71;100.00;60690.53;4998538;28;20022;-81
2021/08/10 06:57:21;;;;;;;16.25;10.88;;;;;;;-145.71;100.00;60690.53;5023761;28;20477;-82
2021/08/10 06:59:46;;;;;;;15.43;12.52;;;;;;;-145.71;100.00;60690.53;5023096;28;20049;-81
2021/08/10 07:02:11;;;;;;;13.80;9.77;;;;;;;-145.71;100.00;60690.53;5015122;28;20043;-81
2021/08/10 07:04:37;;;;;;;18.45;11.88;;;;;;;-145.71;100.00;60690.53;4992327;28;20056;-81
2021/08/10 07:07:03;;;;;;;15.77;10.30;;;;;;;-145.71;100.00;60690.53;5016904;28;20071;-81
2021/08/10 07:09:29;;;;;;;16.00;12.45;;;;;;;-145.71;100.00;60690.53;5021195;28;20037;-82
2021/08/10 07:11:54;;;;;;;14.70;11.90;;;;;;;-145.71;100.00;60690.53;5026327;28;20026;-81
2021/08/10 07:14:19;;;;;;;19.60;11.07;;;;;;;-145.71;100.00;60690.53;4997236;28;20461;-82
2021/08/10 07:16:45;;;;;;;14.73;9.43;;;;;;;-145.71;100.00;60690.53;5009084;28;20773;-82
2021/08/10 07:19:13;;;;;;;14.70;10.85;;;;;;;-145.71;100.00;60690.53;4998984;28;20017;-81
2021/08/10 07:21:38;;;;;;;18.55;9.88;;;;;;;-145.71;100.00;60690.53;5021704;28;20113;-82
2021/08/10 07:24:03;;;;;;;15.80;9.85;;;;;;;-145.71;100.00;60690.53;5024919;28;20049;-81
2021/08/10 07:26:30;;;;;;;18.67;10.35;;;;;;;-145.71;100.00;60690.53;4995770;28;20034;-81
2021/08/10 07:28:55;;;;;;;17.27;9.73;;;;;;;-145.71;100.00;60690.53;5026276;28;20037;-82
2021/08/10 07:31:21;;;;;;;13.25;10.20;;;;;;;-145.71;100.00;60690.53;5018971;28;20076;-81
2021/08/10 07:33:46;;;;;;;15.43;10.25;;;;;;;-145.71;100.00;60690.53;5017173;28;20057;-82
2021/08/10 07:36:11;;;;;;;15.85;9.85;;;;;;;-145.71;100.00;60690.53;5028001;28;20037;-82
2021/08/10 07:38:37;;;;;;;14.65;9.45;;;;;;;-145.71;100.00;60690.53;5015814;28;20160;-82
2021/08/10 07:41:02;;;;;;;18.35;9.95;;;;;;;-145.71;100.00;60690.53;5025308;28;20030;-82
2021/08/10 07:43:28;;;;;;;16.58;10.02;;;;;;;-145.71;100.00;60690.53;5021678;28;20040;-82
2021/08/10 07:45:53;;;;;;;14.52;9.13;;;;;;;-145.71;100.00;60690.53;5018560;28;20026;-81
2021/08/10 07:48:19;;;;;;;27.13;10.70;;;;;;;-145.71;100.00;60690.53;5009142;28;20068;-81
2021/08/10 07:50:46;;;;;;;16.63;9.65;;;;;;;-145.71;100.00;60690.53;5027077;28;20129;-82
2021/08/10 07:53:12;;;;;;;19.73;8.68;;;;;;;-145.71;100.00;60690.53;5016664;28;20108;-81
2021/08/10 07:55:37;;;;;;;15.98;8.15;;;;;;;-145.71;100.00;60690.53;5018330;28;20109;-82
2021/08/10 07:58:02;;;;;;;16.10;7.50;;;;;;;-145.71;100.00;60690.53;5022574;28;20029;-82
2021/08/10 08:00:28;;;;;;;14.73;7.60;;;;;;;-145.71;100.00;60690.53;4996696;28;20053;-82
2021/08/10 08:02:53;;;;;;;13.95;8.82;;;;;;;-145.71;100.00;60690.53;5008752;28;20112;-82
2021/08/10 08:05:19;;;;;;;9.38;5.95;;;;;;;-145.71;100.00;60690.53;5011623;28;20041;-82
2021/08/10 08:07:44;;;;;;;16.33;7.38;;;;;;;-145.71;100.00;60690.53;5010750;28;20792;-82
2021/08/10 08:10:10;;;;;;;16.23;7.43;;;;;;;-145.71;100.00;60690.53;5010172;28;20036;-82
2021/08/10 08:12:36;;;;;;;16.83;6.38;;;;;;;-145.71;100.00;60690.53;5009145;28;20120;-82
2021/08/10 08:15:01;;;;;;;13.40;5.80;;;;;;;-145.71;100.00;60690.53;4997428;28;20108;-82
2021/08/10 08:17:26;;;;;;;14.73;5.95;;;;;;;-145.71;100.00;60690.53;5019623;28;20029;-82
2021/08/10 08:19:51;;;;;;;12.93;6.63;;;;;;;-145.71;100.00;60690.53;5021003;28;20044;-82
2021/08/10 08:22:17;;;;;;;16.70;6.80;;;;;;;-145.71;100.00;60690.53;4993861;28;20112;-82
2021/08/10 08:24:42;;;;;;;16.55;6.57;;;;;;;-145.71;100.00;60690.53;5032458;28;20049;-82
2021/08/10 08:27:07;;;;;;;8.75;3.90;;;;;;;-145.71;100.00;60690.53;5011378;28;20496;-82
2021/08/10 08:29:33;;;;;;;7.93;2.95;;;;;;;-145.71;100.00;60690.53;4992929;28;20028;-82
2021/08/10 08:31:58;;;;;;;55.40;6.78;;;;;;;-145.71;100.00;60690.53;5005774;28;20025;-81
2021/08/10 08:34:23;;;;;;;10.18;5.85;;;;;;;-145.71;100.00;60690.53;5012991;28;20099;-81
2021/08/10 08:36:49;;;;;;;12.20;6.03;;;;;;;-145.71;100.00;60690.53;5006036;28;20129;-81
2021/08/10 08:39:14;;;;;;;16.73;4.90;;;;;;;-145.71;100.00;60690.53;5016749;28;20029;-82
2021/08/10 08:41:41;;;;;;;9.60;4.35;;;;;;;-145.71;100.00;60690.53;5016836;28;20726;-81
2021/08/10 08:44:06;;;;;;;12.52;7.35;;;;;;;-145.71;100.00;60690.53;5005443;28;20029;-81
2021/08/10 08:46:33;;;;;;;8.13;5.65;;;;;;;-145.71;100.00;60690.53;4994132;28;20037;-81
2021/08/10 08:48:59;;;;;;;9.32;6.25;;;;;;;-145.71;100.00;60690.53;5023763;28;20014;-82
2021/08/10 08:51:27;;;;;;;8.52;6.05;;;;;;;-145.71;100.00;60690.53;5005247;28;20040;-82
2021/08/10 08:53:55;;;;;;;19.63;9.38;;;;;;;-145.71;100.00;60690.53;5018688;28;20036;-82
2021/08/10 08:56:23;;;;;;;15.00;8.73;;;;;;;-145.71;100.00;60690.53;5009232;28;20028;-81
2021/08/10 08:58:51;;;;;;;27.67;9.93;;;;;;;-145.71;100.00;60690.53;5024772;28;20034;-81
2021/08/10 09:01:17;;;;;;;21.00;9.55;;;;;;;-145.71;100.00;60690.53;5016079;28;20022;-81
2021/08/10 09:03:42;;;;;;;20.48;7.68;;;;;;;-145.71;100.00;60690.53;5016672;28;20038;-81
2021/08/10 09:06:07;;;;;;;330.10;43.50;;;;;;;-145.71;100.00;60690.53;5007918;28;20937;-81
2021/08/10 09:08:42;;;;;;;19.25;6.63;;;;;;;-145.71;100.00;60690.53;5006891;28;20159;-81
2021/08/10 09:11:15;;;;;;;16.35;9.02;;;;;;;-145.71;100.00;60690.53;5016154;28;20025;-81
2021/08/10 09:13:54;;;;;;;15.40;5.78;;;;;;;-145.71;100.00;60690.53;5021328;28;20040;-82
2021/08/10 09:16:20;;;;;;;19.95;6.82;;;;;;;-145.71;100.00;60690.53;5026999;28;20021;-81
2021/08/10 09:18:45;;;;;;;10.07;5.50;;;;;;;-145.71;100.00;60690.53;4990035;28;20034;-82
2021/08/10 09:21:14;;;;;;;95.35;15.95;;;;;;;-145.71;100.00;60690.53;4984932;28;20060;-81
2021/08/10 09:23:47;;;;;;;11.82;7.45;;;;;;;-145.71;100.00;60690.53;5017086;28;20658;-82
2021/08/10 09:26:15;;;;;;;21.98;11.27;;;;;;;-145.71;100.00;60690.53;5005218;28;20059;-81
2021/08/10 09:28:41;;;;;;;20.90;9.43;;;;;;;-145.71;100.00;60690.53;5004894;28;20029;-81
2021/08/10 09:31:32;;;;;;;13.25;7.93;;;;;;;-145.71;100.00;60690.53;4994632;28;20030;-81
2021/08/10 09:34:17;;;;;;;21.38;10.57;;;;;;;-145.71;100.00;60690.53;5032333;28;20021;-81
2021/08/10 09:36:43;;;;;;;16.42;9.90;;;;;;;-145.71;100.00;60690.53;5015153;28;20024;-82
2021/08/10 09:39:09;;;;;;;13.70;9.10;;;;;;;-145.71;100.00;60690.53;5021594;28;20430;-82
2021/08/10 09:41:34;;;;;;;13.55;7.03;;;;;;;-145.71;100.00;60690.53;5032739;28;20121;-81
2021/08/10 09:44:11;;;;;;;12.30;6.35;;;;;;;-145.71;100.00;60690.53;5032345;28;20025;-82
2021/08/10 09:46:37;;;;;;;10.40;5.68;;;;;;;-145.71;100.00;60690.53;5014875;28;20095;-81
2021/08/10 09:49:06;;;;;;;9.55;6.63;;;;;;;-145.71;100.00;60690.53;5025002;28;20025;-81
2021/08/10 09:51:37;;;;;;;7.38;4.18;;;;;;;-145.71;100.00;60690.53;5002725;28;20021;-81
2021/08/10 09:54:07;;;;;;;7.68;5.38;;;;;;;-145.71;100.00;60690.53;5017133;28;20541;-81
2021/08/10 09:56:59;;;;;;;8.13;4.38;;;;;;;-145.71;100.00;60690.53;5011323;28;20477;-81
2021/08/10 09:59:38;;;;;;;;;;;;;;;-145.71;100.00;60690.53;5003000;28;20025;-81
2021/08/10 10:02:17;;;;;;;10.48;5.65;;;;;;;-145.71;100.00;60690.53;5033518;28;19913;-82
2021/08/10 10:04:56;;;;;;;8.75;5.05;;;;;;;-145.71;100.00;60690.53;4996276;28;20054;-82
2021/08/10 10:07:23;;;;;;;7.80;4.00;;;;;;;-145.71;100.00;60690.53;5021251;28;20060;-82
2021/08/10 10:09:48;;;;;;;7.28;4.35;;;;;;;-145.71;100.00;60690.53;5001942;28;20030;-82
2021/08/10 10:12:16;;;;;;;11.85;4.38;;;;;;;-145.71;100.00;60690.53;5009226;28;20040;-82
2021/08/10 10:14:44;;;;;;;7.20;3.63;;;;;;;-145.71;100.00;60690.53;5014430;28;20021;-82
2021/08/10 10:17:11;;;;;;;10.75;4.93;;;;;;;-145.71;100.00;60690.53;5007552;28;20046;-81
2021/08/10 10:19:39;;;;;;;6.95;3.60;;;;;;;-145.71;100.00;60690.53;5023153;28;20061;-81
2021/08/10 10:22:14;;;;;;;4.95;3.50;;;;;;;-145.71;100.00;60690.53;5017544;28;20033;-82
2021/08/10 10:24:47;;;;;;;5.03;3.53;;;;;;;-145.71;100.00;60690.53;5026966;28;20068;-81
2021/08/10 10:27:13;;;;;;;5.10;3.42;;;;;;;-145.71;100.00;60690.53;5018177;28;20029;-81
2021/08/10 10:29:42;;;;;;;5.82;3.53;;;;;;;-145.71;100.00;60690.53;5006411;28;20115;-82
2021/08/10 10:32:08;;;;;;;4.85;3.67;;;;;;;-145.71;100.00;60690.53;5015891;28;20036;-81
2021/08/10 10:34:36;;;;;;;4.55;3.45;;;;;;;-145.71;100.00;60690.53;5009056;28;20417;-82
2021/08/10 10:37:03;;;;;;;5.70;2.92;;;;;;;-145.71;100.00;60690.53;5025907;28;20719;-82
2021/08/10 10:39:31;;;;;;;4.97;3.00;;;;;;;-145.71;100.00;60690.53;5001532;28;20033;-82
2021/08/10 10:41:59;;;;;;;4.30;3.00;;;;;;;-145.71;100.00;60690.53;5017081;28;20022;-81
2021/08/10 10:44:44;;;;;;;5.07;2.55;;;;;;;-145.71;100.00;60690.53;5028818;28;20052;-82
2021/08/10 10:47:22;;;;;;;3.83;2.17;;;;;;;-145.71;100.00;60690.53;5019994;28;20040;-81
2021/08/10 10:50:08;;;;;;;2.85;2.63;;;;;;;-145.71;100.00;60690.53;5001517;28;20029;-81
2021/08/10 10:52:34;;;;;;;5.07;2.15;;;;;;;-145.71;100.00;60690.53;5026996;28;20137;-81
2021/08/10 10:55:02;;;;;;;5.13;2.97;;;;;;;-145.71;100.00;60690.53;5015506;28;20025;-81
2021/08/10 10:57:31;;;;;;;3.30;2.42;;;;;;;-145.71;100.00;60690.53;5019771;28;20044;-81
2021/08/10 11:00:12;;;;;;;5.25;2.70;;;;;;;-145.71;100.00;60690.53;5009297;28;20382;-81
2021/08/10 11:02:38;;;;;;;4.82;2.33;;;;;;;-145.71;100.00;60690.53;5030329;28;20436;-82